Time;durP1;ratioP1;P1;durP2;ratioP2;P2;SDS_P1;SDS_P2;PMS_P1;PMS_P2;Temp;Humidity;BMP_temperature;BMP_pressure;BME280_temperature;BME280_humidity;BME280_pressure;Samples;Min_cycle;Max_cycle;Signal;HPM_P1;HPM_P2
2023/11/15 00:00:25;;;;;;;8.27;2.80;;;;;;;5.74;100.00;99661.13;7366229;19;20923;-45
2023/11/15 00:02:56;;;;;;;52.37;17.10;;;;;;;5.73;100.00;99652.56;7389518;19;20963;-45
2023/11/15 00:05:26;;;;;;;4.07;2.20;;;;;;;5.70;100.00;99652.44;7366322;19;20432;-48
2023/11/15 00:07:56;;;;;;;14.80;6.13;;;;;;;5.65;100.00;99647.09;7390714;19;20901;-45
2023/11/15 00:10:28;;;;;;;6.43;2.53;;;;;;;5.69;100.00;99663.44;7366961;19;20408;-47
2023/11/15 00:12:58;;;;;;;34.47;13.10;;;;;;;5.69;100.00;99663.44;7394041;19;20410;-44
2023/11/15 00:15:25;;;;;;;7.63;3.00;;;;;;;5.76;100.00;99649.25;7375835;19;20441;-47
2023/11/15 00:18:04;;;;;;;4.87;3.17;;;;;;;5.76;100.00;99659.50;7396687;19;20787;-45
2023/11/15 00:20:35;;;;;;;38.57;13.50;;;;;;;5.89;100.00;99655.78;7373286;19;20447;-47
2023/11/15 00:23:05;;;;;;;5.70;3.23;;;;;;;5.83;100.00;99656.38;7399803;19;20405;-43
2023/11/15 00:25:37;;;;;;;7.83;3.90;;;;;;;5.77;100.00;99671.47;7375942;19;20490;-44
2023/11/15 00:28:08;;;;;;;4.83;2.67;;;;;;;5.76;100.00;99670.63;7395666;19;20498;-44
2023/11/15 00:30:38;;;;;;;12.03;5.07;;;;;;;5.75;100.00;99679.06;7372913;19;20403;-49
2023/11/15 00:33:07;;;;;;;5.53;2.70;;;;;;;5.78;100.00;99679.22;7396794;19;20763;-47
2023/11/15 00:35:37;;;;;;;7.83;3.07;;;;;;;5.74;100.00;99689.28;7373801;19;20426;-43
2023/11/15 00:38:07;;;;;;;25.37;9.10;;;;;;;5.78;100.00;99693.69;7396258;19;20427;-45
2023/11/15 00:40:41;;;;;;;15.47;6.33;;;;;;;5.75;100.00;99702.13;7374622;19;20890;-44
2023/11/15 00:43:11;;;;;;;8.77;3.33;;;;;;;5.78;100.00;99711.63;7398820;19;20418;-44
2023/11/15 00:45:41;;;;;;;34.50;12.03;;;;;;;5.79;100.00;99732.19;7374128;19;20410;-47
2023/11/15 00:48:12;;;;;;;11.63;4.80;;;;;;;5.81;100.00;99734.81;7396764;19;20414;-46
2023/11/15 00:50:41;;;;;;;8.47;4.03;;;;;;;5.76;100.00;99739.72;7374791;19;20411;-45
2023/11/15 00:53:12;;;;;;;26.07;11.33;;;;;;;5.77;100.00;99738.91;7398757;19;20475;-44
2023/11/15 00:55:45;;;;;;;11.03;4.77;;;;;;;5.75;100.00;99745.63;7372871;19;20489;-45
2023/11/15 00:58:17;;;;;;;26.33;10.43;;;;;;;5.81;100.00;99757.84;7396781;19;20459;-46
2023/11/15 01:00:48;;;;;;;19.00;7.83;;;;;;;5.81;100.00;99765.53;7375417;19;20431;-45
2023/11/15 01:03:25;;;;;;;5.00;2.80;;;;;;;5.75;100.00;99763.56;7397078;19;20410;-46
2023/11/15 01:05:56;;;;;;;21.73;9.20;;;;;;;5.80;100.00;99768.91;7370292;19;20403;-45
2023/11/15 01:08:26;;;;;;;7.43;3.27;;;;;;;5.83;100.00;99773.28;7394546;19;20773;-46
2023/11/15 01:10:58;;;;;;;5.70;3.20;;;;;;;5.81;100.00;99780.88;7372362;19;20399;-44
2023/11/15 01:13:29;;;;;;;5.37;2.60;;;;;;;5.75;100.00;99786.59;7397455;19;20395;-46
2023/11/15 01:16:01;;;;;;;6.30;2.87;;;;;;;5.69;100.00;99796.53;7373784;19;20431;-45
2023/11/15 01:18:33;;;;;;;5.80;2.60;;;;;;;5.67;100.00;99798.16;7396177;19;20751;-44
2023/11/15 01:21:03;;;;;;;6.03;3.13;;;;;;;5.66;100.00;99807.50;7372361;19;20842;-46
2023/11/15 01:23:33;;;;;;;13.13;6.00;;;;;;;5.72;100.00;99816.28;7395278;19;20416;-47
2023/11/15 01:26:06;;;;;;;7.63;4.00;;;;;;;5.67;100.00;99819.53;7370312;19;21014;-45
2023/11/15 01:28:36;;;;;;;14.73;6.33;;;;;;;5.66;100.00;99824.56;7396272;19;20927;-46
2023/11/15 01:31:07;;;;;;;15.33;7.10;;;;;;;5.73;100.00;99826.59;7372512;19;20411;-44
2023/11/15 01:33:36;;;;;;;41.87;13.77;;;;;;;5.69;100.00;99840.06;7394658;19;20471;-44
2023/11/15 01:36:09;;;;;;;8.30;4.07;;;;;;;5.64;100.00;99844.09;7372046;19;20412;-44
2023/11/15 01:38:40;;;;;;;7.53;3.73;;;;;;;5.66;100.00;99847.59;7394630;19;20408;-47
2023/11/15 01:41:12;;;;;;;9.57;4.20;;;;;;;5.66;100.00;99857.84;7372092;19;20494;-46
2023/11/15 01:43:42;;;;;;;20.93;8.80;;;;;;;5.70;100.00;99862.31;7394525;19;20407;-44
2023/11/15 01:46:12;;;;;;;10.77;4.73;;;;;;;5.73;100.00;99870.13;7373386;19;20431;-46
2023/11/15 01:48:41;;;;;;;8.47;3.93;;;;;;;5.63;100.00;99870.47;7393954;19;20416;-45
2023/11/15 01:51:11;;;;;;;11.80;4.40;;;;;;;5.61;100.00;99869.53;7373076;19;20490;-47
2023/11/15 01:53:41;;;;;;;9.23;4.40;;;;;;;5.65;100.00;99884.25;7394554;19;20491;-44
2023/11/15 01:56:13;;;;;;;11.57;4.60;;;;;;;5.61;100.00;99879.78;7372556;19;20540;-45
2023/11/15 01:58:43;;;;;;;9.57;4.53;;;;;;;5.66;100.00;99893.69;7393566;19;20407;-46
2023/11/15 02:01:13;;;;;;;9.77;4.67;;;;;;;5.62;100.00;99900.34;7370172;19;21180;-44
2023/11/15 02:03:43;;;;;;;8.80;4.47;;;;;;;5.61;100.00;99905.38;7389541;19;20404;-44
2023/11/15 02:06:13;;;;;;;11.93;4.80;;;;;;;5.56;100.00;99906.81;7371177;19;20846;-44
2023/11/15 02:08:43;;;;;;;8.60;4.63;;;;;;;5.57;100.00;99916.25;7393792;19;20412;-44
2023/11/15 02:11:15;;;;;;;12.30;5.60;;;;;;;5.58;100.00;99925.72;7370868;19;20982;-45
2023/11/15 02:13:45;;;;;;;18.50;7.00;;;;;;;5.63;100.00;99926.78;7394396;19;20415;-44
2023/11/15 02:16:15;;;;;;;9.00;4.70;;;;;;;5.60;100.00;99929.22;7370512;19;20845;-44
2023/11/15 02:18:45;;;;;;;10.50;5.03;;;;;;;5.61;100.00;99926.75;7393043;19;20407;-44
2023/11/15 02:21:15;;;;;;;53.63;17.20;;;;;;;5.62;100.00;99932.72;7371260;19;20788;-44
2023/11/15 02:23:48;;;;;;;9.93;5.13;;;;;;;5.62;100.00;99935.28;7394450;19;20399;-45
2023/11/15 02:26:19;;;;;;;9.97;4.90;;;;;;;5.60;100.00;99934.34;7370354;19;20451;-46
2023/11/15 02:28:49;;;;;;;12.10;5.60;;;;;;;5.64;100.00;99946.47;7394833;19;20958;-44
2023/11/15 02:31:19;;;;;;;8.80;5.10;;;;;;;5.62;100.00;99955.75;7368561;19;20415;-46
2023/11/15 02:33:49;;;;;;;11.17;5.50;;;;;;;5.60;100.00;99955.69;7393790;19;20419;-43
2023/11/15 02:36:18;;;;;;;18.57;7.73;;;;;;;5.63;100.00;99957.50;7368277;19;20444;-45
2023/11/15 02:38:50;;;;;;;10.73;5.33;;;;;;;5.58;100.00;99962.41;7394438;19;20422;-45
2023/11/15 02:41:20;;;;;;;15.17;5.23;;;;;;;5.61;100.00;99969.34;7369163;19;20918;-45
2023/11/15 02:43:49;;;;;;;10.67;5.10;;;;;;;5.54;100.00;99961.38;7392681;19;21230;-45
2023/11/15 02:46:22;;;;;;;10.10;5.17;;;;;;;5.57;100.00;99968.31;7369351;19;20419;-44
2023/11/15 02:48:52;;;;;;;19.03;7.80;;;;;;;5.60;100.00;99981.28;7394030;19;20403;-45
2023/11/15 02:51:22;;;;;;;9.57;4.93;;;;;;;5.54;100.00;99981.84;7369057;19;20465;-46
2023/11/15 02:53:54;;;;;;;22.03;8.40;;;;;;;5.60;100.00;99995.75;7392943;19;20404;-45
2023/11/15 02:56:24;;;;;;;16.70;7.10;;;;;;;5.56;100.00;99993.84;7369896;19;20430;-48
2023/11/15 02:58:54;;;;;;;18.93;7.67;;;;;;;5.60;100.00;99995.75;7394129;19;20403;-51
2023/11/15 03:01:24;;;;;;;8.83;5.03;;;;;;;5.58;100.00;100002.50;7368456;19;20440;-49
2023/11/15 03:03:53;;;;;;;14.57;6.03;;;;;;;5.61;100.00;100000.06;7392469;19;20403;-46
2023/11/15 03:06:23;;;;;;;11.00;5.53;;;;;;;5.63;100.00;100001.91;7366037;19;20419;-48
2023/11/15 03:08:55;;;;;;;32.50;14.07;;;;;;;5.64;100.00;100005.34;7391614;19;20424;-49
2023/11/15 03:11:25;;;;;;;10.90;5.33;;;;;;;5.57;100.00;100003.25;7368509;19;20454;-48
2023/11/15 03:13:55;;;;;;;11.77;6.03;;;;;;;5.61;100.00;100002.63;7392413;19;20474;-45
2023/11/15 03:16:25;;;;;;;42.03;15.20;;;;;;;5.64;100.00;99993.41;7368760;19;20431;-49
2023/11/15 03:18:54;;;;;;;65.77;20.97;;;;;;;5.64;100.00;100007.91;7393392;19;20415;-46
2023/11/15 03:21:24;;;;;;;7.37;4.40;;;;;;;5.55;100.00;100013.44;7369000;19;20479;-47
2023/11/15 03:23:56;;;;;;;10.40;4.20;;;;;;;5.50;100.00;100014.88;7391587;19;20954;-44
2023/11/15 03:26:25;;;;;;;19.60;8.73;;;;;;;5.51;100.00;100021.75;7367246;19;20506;-44
2023/11/15 03:28:56;;;;;;;31.13;11.00;;;;;;;5.58;100.00;100028.06;7393054;19;20407;-48
2023/11/15 03:31:25;;;;;;;9.27;4.70;;;;;;;5.56;100.00;100025.44;7368251;19;20510;-47
2023/11/15 03:33:55;;;;;;;16.50;7.73;;;;;;;5.52;100.00;100034.63;7391390;19;20415;-45
2023/11/15 03:36:24;;;;;;;11.07;5.77;;;;;;;5.52;100.00;100031.19;7367502;19;20419;-46
2023/11/15 03:38:57;;;;;;;10.60;5.40;;;;;;;5.53;100.00;100041.50;7391034;19;20467;-49
2023/11/15 03:41:26;;;;;;;14.53;6.93;;;;;;;5.52;100.00;100042.31;7367095;19;21082;-44
2023/11/15 03:43:56;;;;;;;12.00;6.20;;;;;;;5.58;100.00;100043.44;7391913;19;20423;-49
2023/11/15 03:46:26;;;;;;;12.87;7.00;;;;;;;5.61;100.00;100051.25;7368246;19;20852;-44
2023/11/15 03:48:56;;;;;;;10.97;6.27;;;;;;;5.54;100.00;100047.53;7395002;19;20427;-46
2023/11/15 03:51:25;;;;;;;10.13;6.13;;;;;;;5.58;100.00;100048.56;7374483;19;20494;-44
2023/11/15 03:53:57;;;;;;;13.80;6.93;;;;;;;5.50;100.00;100059.25;7401044;19;20407;-47
2023/11/15 03:56:27;;;;;;;23.63;12.17;;;;;;;5.51;100.00;100058.47;7376120;19;20431;-45
2023/11/15 03:58:57;;;;;;;51.73;19.63;;;;;;;5.57;100.00;100068.13;7397392;19;20403;-45
2023/11/15 04:01:26;;;;;;;26.80;12.37;;;;;;;5.66;100.00;100073.69;7373403;19;20444;-45
2023/11/15 04:03:56;;;;;;;13.53;7.27;;;;;;;5.58;100.00;100077.56;7398167;19;20923;-49
2023/11/15 04:06:27;;;;;;;11.57;6.87;;;;;;;5.60;100.00;100082.75;7373399;19;20422;-48
2023/11/15 04:08:59;;;;;;;19.70;9.50;;;;;;;5.62;100.00;100082.06;7399438;19;20484;-45
2023/11/15 04:11:29;;;;;;;16.90;8.97;;;;;;;5.54;100.00;100079.09;7375026;19;20425;-46
2023/11/15 04:13:59;;;;;;;11.73;6.20;;;;;;;5.48;100.00;100091.56;7397853;19;20475;-48
2023/11/15 04:16:29;;;;;;;11.03;6.67;;;;;;;5.53;100.00;100094.34;7373336;19;20430;-45
2023/11/15 04:18:59;;;;;;;14.27;6.60;;;;;;;5.53;100.00;100097.81;7397008;19;20487;-47
2023/11/15 04:21:29;;;;;;;18.27;8.37;;;;;;;5.58;100.00;100100.59;7374257;19;20447;-45
2023/11/15 04:24:01;;;;;;;19.10;8.87;;;;;;;5.51;100.00;100107.09;7396851;19;20399;-45
2023/11/15 04:26:32;;;;;;;13.97;7.07;;;;;;;5.50;100.00;100096.78;7373625;19;20495;-45
2023/11/15 04:29:01;;;;;;;41.50;13.87;;;;;;;5.56;100.00;100112.44;7396787;19;20404;-45
2023/11/15 04:31:34;;;;;;;66.07;22.47;;;;;;;5.58;100.00;100112.53;7374171;19;20820;-47
2023/11/15 04:34:05;;;;;;;11.77;6.33;;;;;;;5.53;100.00;100115.72;7399481;19;20415;-44
2023/11/15 04:36:34;;;;;;;15.07;7.20;;;;;;;5.50;100.00;100118.09;7372985;19;20824;-45
2023/11/15 04:39:07;;;;;;;15.63;7.17;;;;;;;5.50;100.00;100118.09;7399100;19;20407;-44
2023/11/15 04:41:40;;;;;;;27.77;12.53;;;;;;;5.40;100.00;100126.13;7373688;19;20431;-45
2023/11/15 04:44:11;;;;;;;21.50;9.03;;;;;;;5.44;100.00;100129.72;7398003;19;20432;-46
2023/11/15 04:46:40;;;;;;;18.57;8.37;;;;;;;5.40;100.00;100132.09;7373602;19;21015;-45
2023/11/15 04:49:10;;;;;;;35.37;12.57;;;;;;;5.50;100.00;100143.69;7394866;19;20387;-47
2023/11/15 04:51:39;;;;;;;11.27;5.53;;;;;;;5.49;100.00;100152.19;7371821;19;20392;-49
2023/11/15 04:54:12;;;;;;;10.00;5.37;;;;;;;5.45;100.00;100155.41;7395302;19;20390;-46
2023/11/15 04:56:41;;;;;;;17.40;7.93;;;;;;;5.42;100.00;100147.53;7371523;19;20412;-45
2023/11/15 04:59:11;;;;;;;11.33;5.40;;;;;;;5.38;100.00;100159.28;7394057;19;20388;-45
2023/11/15 05:01:45;;;;;;;10.93;5.50;;;;;;;5.50;100.00;100163.31;7370009;19;20502;-47
2023/11/15 05:04:15;;;;;;;10.33;5.50;;;;;;;5.48;100.00;100170.91;7395672;19;20406;-44
2023/11/15 05:06:46;;;;;;;11.50;6.10;;;;;;;5.47;100.00;100175.91;7369622;19;20399;-45
2023/11/15 05:09:19;;;;;;;9.80;4.80;;;;;;;5.44;100.00;100174.06;7392014;19;20398;-45
2023/11/15 05:11:48;;;;;;;12.50;6.53;;;;;;;5.43;100.00;100182.56;7371027;19;20399;-49
2023/11/15 05:14:18;;;;;;;8.23;4.67;;;;;;;5.51;100.00;100185.53;7392665;19;20467;-45
2023/11/15 05:16:48;;;;;;;14.70;6.47;;;;;;;5.53;100.00;100189.03;7369743;19;20408;-46
2023/11/15 05:19:18;;;;;;;10.50;4.50;;;;;;;5.51;100.00;100189.00;7393573;19;20927;-45
2023/11/15 05:21:48;;;;;;;11.60;5.90;;;;;;;5.47;100.00;100196.38;7371129;19;20747;-45
2023/11/15 05:24:20;;;;;;;9.60;5.27;;;;;;;5.38;100.00;100197.66;7395895;19;20412;-46
2023/11/15 05:26:50;;;;;;;11.50;6.40;;;;;;;5.46;100.00;100208.31;7371785;19;20431;-44
2023/11/15 05:29:20;;;;;;;11.63;6.07;;;;;;;5.44;100.00;100209.91;7391755;19;20395;-43
2023/11/15 05:31:49;;;;;;;14.33;7.30;;;;;;;5.42;100.00;100215.75;7369895;19;20832;-42
2023/11/15 05:34:19;;;;;;;15.03;7.30;;;;;;;5.42;100.00;100216.63;7394057;19;20415;-43
2023/11/15 05:36:49;;;;;;;9.23;5.10;;;;;;;5.37;100.00;100216.38;7369901;19;20474;-42
2023/11/15 05:39:21;;;;;;;22.93;9.97;;;;;;;5.31;100.00;100223.72;7393415;19;20460;-44
2023/11/15 05:41:51;;;;;;;10.97;5.60;;;;;;;5.33;100.00;100237.47;7368738;19;20416;-45
2023/11/15 05:44:21;;;;;;;11.80;6.60;;;;;;;5.37;100.00;100241.06;7392645;19;20799;-42
2023/11/15 05:46:50;;;;;;;12.27;6.10;;;;;;;5.40;100.00;100243.81;7369430;19;20395;-45
2023/11/15 05:49:20;;;;;;;13.57;6.20;;;;;;;5.39;100.00;100252.28;7390672;19;20495;-44
2023/11/15 05:51:49;;;;;;;22.80;8.63;;;;;;;5.38;100.00;100245.38;7369011;19;20406;-44
2023/11/15 05:54:22;;;;;;;14.17;6.17;;;;;;;5.31;100.00;100258.66;7391081;19;20754;-45
2023/11/15 05:56:51;;;;;;;20.00;9.17;;;;;;;5.34;100.00;100253.72;7369262;19;20478;-46
2023/11/15 05:59:21;;;;;;;12.47;6.27;;;;;;;5.27;100.00;100257.59;7392055;19;20396;-47
2023/11/15 06:01:54;;;;;;;11.77;6.13;;;;;;;5.25;100.00;100249.88;7369627;19;20474;-46
2023/11/15 06:04:24;;;;;;;12.00;6.43;;;;;;;5.22;100.00;100259.00;7391054;19;20394;-46
2023/11/15 06:06:53;;;;;;;11.67;6.93;;;;;;;5.23;100.00;100271.03;7367205;19;20410;-47
2023/11/15 06:09:26;;;;;;;21.07;9.37;;;;;;;5.17;100.00;100276.66;7392744;19;20391;-46
2023/11/15 06:11:55;;;;;;;14.83;7.93;;;;;;;5.16;100.00;100271.47;7366784;19;20943;-46
2023/11/15 06:14:25;;;;;;;21.10;9.97;;;;;;;5.18;100.00;100280.97;7395647;19;20392;-45
2023/11/15 06:16:55;;;;;;;14.70;7.00;;;;;;;5.14;100.00;100286.75;7369006;19;20986;-45
2023/11/15 06:19:25;;;;;;;13.17;7.60;;;;;;;5.14;100.00;100294.41;7390962;19;20399;-47
2023/11/15 06:21:54;;;;;;;24.33;10.33;;;;;;;5.07;100.00;100293.19;7369131;19;20398;-45
2023/11/15 06:24:26;;;;;;;17.47;8.30;;;;;;;5.10;100.00;100295.94;7390661;19;20391;-45
2023/11/15 06:26:56;;;;;;;17.67;9.03;;;;;;;5.13;100.00;100300.34;7371557;19;20438;-46
2023/11/15 06:29:26;;;;;;;14.07;7.50;;;;;;;5.04;100.00;100304.91;7392470;19;20384;-49
2023/11/15 06:31:56;;;;;;;16.23;7.07;;;;;;;5.02;100.00;100296.28;7368337;19;20978;-50
2023/11/15 06:34:25;;;;;;;25.90;11.83;;;;;;;5.03;100.00;100319.34;7391098;19;20403;-47
2023/11/15 06:36:55;;;;;;;15.30;7.47;;;;;;;4.99;100.00;100328.53;7368000;19;20399;-51
2023/11/15 06:39:28;;;;;;;11.37;6.93;;;;;;;4.90;100.00;100337.34;7391869;19;20392;-51
2023/11/15 06:41:57;;;;;;;15.03;8.40;;;;;;;4.91;100.00;100340.00;7368379;19;20439;-51
2023/11/15 06:44:27;;;;;;;18.07;8.17;;;;;;;5.04;100.00;100348.38;7390411;19;20388;-51
2023/11/15 06:46:56;;;;;;;15.53;7.67;;;;;;;5.05;100.00;100353.59;7367516;19;20419;-48
2023/11/15 06:49:26;;;;;;;14.57;8.07;;;;;;;5.04;100.00;100348.38;7389848;19;20396;-48
2023/11/15 06:51:56;;;;;;;24.93;10.30;;;;;;;5.12;100.00;100365.03;7367176;19;20784;-52
2023/11/15 06:54:28;;;;;;;15.70;8.00;;;;;;;5.06;100.00;100373.25;7390520;19;20420;-45
2023/11/15 06:56:58;;;;;;;12.60;7.10;;;;;;;5.04;100.00;100376.50;7367462;19;20439;-47
2023/11/15 06:59:29;;;;;;;11.83;6.53;;;;;;;5.00;100.00;100380.56;7395228;19;20408;-45
2023/11/15 07:01:59;;;;;;;13.03;6.80;;;;;;;5.00;100.00;100385.69;7367353;19;20407;-50
2023/11/15 07:04:29;;;;;;;11.77;6.33;;;;;;;5.02;100.00;100401.13;7391410;19;20388;-50
2023/11/15 07:06:59;;;;;;;31.70;13.73;;;;;;;5.06;100.00;100406.50;7365581;19;20886;-48
2023/11/15 07:09:31;;;;;;;13.63;6.17;;;;;;;5.06;100.00;100416.72;7393077;19;20407;-48
2023/11/15 07:12:02;;;;;;;11.70;6.03;;;;;;;5.12;100.00;100416.19;7368473;19;20423;-51
2023/11/15 07:14:34;;;;;;;19.67;10.40;;;;;;;5.54;100.00;100436.50;7391417;19;20412;-48
2023/11/15 07:17:03;;;;;;;70.77;28.37;;;;;;;5.75;100.00;100436.81;7367131;19;20522;-47
2023/11/15 07:19:33;;;;;;;48.00;18.90;;;;;;;5.78;100.00;100438.66;7392605;19;20792;-48
2023/11/15 07:22:03;;;;;;;24.47;10.80;;;;;;;5.43;100.00;100430.75;7368421;19;20506;-46
2023/11/15 07:24:39;;;;;;;20.50;8.07;;;;;;;5.43;100.00;100443.56;7398250;19;20403;-50
2023/11/15 07:27:11;;;;;;;61.83;21.00;;;;;;;5.16;100.00;100433.50;7374471;19;20403;-48
2023/11/15 07:29:40;;;;;;;31.10;14.00;;;;;;;5.53;100.00;100439.84;7398384;19;21214;-48
2023/11/15 07:32:10;;;;;;;16.90;7.63;;;;;;;5.34;100.00;100427.69;7370282;19;20432;-45
2023/11/15 07:34:40;;;;;;;21.10;10.67;;;;;;;5.32;100.00;100435.25;7396299;19;20384;-50
2023/11/15 07:37:09;;;;;;;12.07;5.53;;;;;;;5.43;100.00;100427.34;7373204;19;20441;-47
2023/11/15 07:39:41;;;;;;;11.83;5.73;;;;;;;5.30;100.00;100425.72;7401462;19;20400;-49
2023/11/15 07:42:11;;;;;;;10.40;5.57;;;;;;;5.25;100.00;100420.34;7373824;19;20466;-51
2023/11/15 07:44:43;;;;;;;43.70;13.60;;;;;;;5.56;100.00;100428.91;7398637;19;20387;-48
2023/11/15 07:47:14;;;;;;;54.33;23.87;;;;;;;5.97;100.00;100442.25;7371677;19;20427;-50
2023/11/15 07:49:44;;;;;;;33.90;11.53;;;;;;;6.14;100.00;100438.09;7402448;19;20403;-45
2023/11/15 07:52:14;;;;;;;20.97;10.70;;;;;;;5.80;100.00;100432.84;7373139;19;20422;-45
2023/11/15 07:54:46;;;;;;;25.23;11.93;;;;;;;6.06;100.00;100432.56;7400957;19;20398;-48
2023/11/15 07:57:16;;;;;;;28.30;11.50;;;;;;;6.02;100.00;100428.97;7372545;19;20405;-47
2023/11/15 07:59:47;;;;;;;28.73;13.13;;;;;;;6.31;100.00;100433.91;7394513;19;20786;-46
2023/11/15 08:02:17;;;;;;;11.83;5.67;;;;;;;6.22;100.00;100429.16;7374217;19;20449;-46
2023/11/15 08:04:46;;;;;;;7.97;4.97;;;;;;;5.79;100.00;100425.97;7398604;19;20428;-44
2023/11/15 08:07:16;;;;;;;12.40;5.83;;;;;;;5.68;100.00;100425.38;7372848;19;20423;-46
2023/11/15 08:09:49;;;;;;;8.60;4.70;;;;;;;5.71;100.00;100437.47;7394767;19;20414;-47
2023/11/15 08:12:20;;;;;;;7.80;4.77;;;;;;;5.65;100.00;100434.56;7374650;19;20815;-45
2023/11/15 08:14:50;;;;;;;9.07;5.27;;;;;;;5.61;100.00;100438.63;7398679;19;20419;-50
2023/11/15 08:17:19;;;;;;;13.10;4.87;;;;;;;5.70;100.00;100440.81;7375487;19;20462;-48
2023/11/15 08:19:49;;;;;;;17.70;5.10;;;;;;;5.65;100.00;100443.09;7399671;19;20399;-44
2023/11/15 08:22:21;;;;;;;8.43;4.60;;;;;;;5.67;100.00;100445.75;7372825;19;20427;-46
2023/11/15 08:24:53;;;;;;;6.80;4.37;;;;;;;5.70;100.00;100456.19;7400294;19;20404;-45
2023/11/15 08:27:23;;;;;;;8.70;4.53;;;;;;;5.72;100.00;100457.16;7372140;19;20431;-45
2023/11/15 08:29:52;;;;;;;9.30;4.00;;;;;;;5.62;100.00;100465.09;7397276;19;20403;-46
2023/11/15 08:32:24;;;;;;;9.33;4.30;;;;;;;5.63;100.00;100472.84;7374583;19;20955;-47
2023/11/15 08:34:55;;;;;;;92.37;32.60;;;;;;;5.69;100.00;100482.56;7395841;19;20407;-45
2023/11/15 08:37:24;;;;;;;11.87;6.50;;;;;;;5.76;100.00;100497.50;7369637;19;20970;-45
2023/11/15 08:39:58;;;;;;;8.43;4.63;;;;;;;5.68;100.00;100496.16;7399108;19;20407;-45
2023/11/15 08:42:29;;;;;;;11.03;4.93;;;;;;;5.79;100.00;100494.19;7374678;19;20567;-46
2023/11/15 08:44:58;;;;;;;58.17;21.17;;;;;;;5.95;100.00;100495.97;7394593;19;21030;-47
2023/11/15 08:47:28;;;;;;;36.40;13.73;;;;;;;5.88;100.00;100498.97;7371109;19;20427;-47
2023/11/15 08:49:58;;;;;;;69.93;25.00;;;;;;;5.88;100.00;100499.84;7398752;19;20408;-47
2023/11/15 08:52:27;;;;;;;34.47;14.57;;;;;;;5.93;100.00;100502.66;7374479;19;20443;-45
2023/11/15 08:55:00;;;;;;;48.27;17.17;;;;;;;5.99;100.00;100503.03;7396996;19;20400;-46
2023/11/15 08:57:30;;;;;;;8.10;3.63;;;;;;;5.93;100.00;100502.66;7373583;19;20418;-47
2023/11/15 09:00:00;;;;;;;8.70;4.53;;;;;;;5.80;100.00;100496.00;7398620;19;20418;-46
2023/11/15 09:02:31;;;;;;;103.13;34.63;;;;;;;5.94;100.00;100497.66;7374370;19;20498;-47
2023/11/15 09:05:01;;;;;;;6.40;3.50;;;;;;;6.02;100.00;100503.25;7396408;19;20974;-45
2023/11/15 09:07:30;;;;;;;8.77;4.50;;;;;;;6.01;100.00;100506.53;7370796;19;20446;-47
2023/11/15 09:10:04;;;;;;;7.60;2.80;;;;;;;5.98;100.00;100506.38;7398241;19;20414;-45
2023/11/15 09:12:33;;;;;;;5.87;3.20;;;;;;;5.99;100.00;100512.41;7373467;19;20431;-45
2023/11/15 09:15:11;;;;;;;7.73;3.57;;;;;;;5.98;100.00;100508.03;7399828;19;20411;-44
2023/11/15 09:17:45;;;;;;;4.83;2.80;;;;;;;6.02;100.00;100508.38;7374937;19;20443;-50
2023/11/15 09:20:20;;;;;;;5.57;2.80;;;;;;;6.09;100.00;100522.38;7374864;19;20399;-47
2023/11/15 09:22:53;;;;;;;28.50;10.27;;;;;;;6.11;100.00;100530.16;7392527;19;20474;-45
2023/11/15 09:25:28;;;;;;;21.23;8.17;;;;;;;6.20;100.00;100535.78;7375316;19;20463;-46
2023/11/15 09:27:59;;;;;;;7.63;3.27;;;;;;;6.18;100.00;100534.81;7394191;19;20411;-46
2023/11/15 09:30:31;;;;;;;53.27;18.63;;;;;;;6.27;100.00;100543.03;7372216;19;20408;-48
2023/11/15 09:33:05;;;;;;;6.00;3.10;;;;;;;6.27;100.00;100545.59;7396864;19;20423;-50
2023/11/15 09:35:36;;;;;;;19.20;7.87;;;;;;;6.18;100.00;100539.94;7373677;19;20402;-48
2023/11/15 09:38:10;;;;;;;15.40;7.53;;;;;;;6.18;100.00;100555.31;7393503;19;20425;-50
2023/11/15 09:40:48;;;;;;;34.63;14.40;;;;;;;6.19;100.00;100560.53;7373077;19;20391;-48
2023/11/15 09:43:19;;;;;;;6.77;3.57;;;;;;;6.22;100.00;100562.41;7394512;19;20482;-45
2023/11/15 09:45:50;;;;;;;12.17;5.50;;;;;;;6.17;100.00;100563.81;7370858;19;20399;-48
2023/11/15 09:48:20;;;;;;;7.87;3.37;;;;;;;6.42;100.00;100565.19;7385593;19;20464;-49
2023/11/15 09:50:52;;;;;;;8.10;3.27;;;;;;;6.39;100.00;100573.59;7363434;19;20423;-47
2023/11/15 09:53:24;;;;;;;39.77;16.20;;;;;;;6.68;100.00;100568.28;7394701;19;20424;-45
2023/11/15 09:55:59;;;;;;;7.10;3.60;;;;;;;6.70;100.00;100572.72;7370512;19;20416;-48
2023/11/15 09:58:30;;;;;;;9.57;4.60;;;;;;;6.68;100.00;100579.44;7395387;19;20395;-45
2023/11/15 10:01:01;;;;;;;16.30;6.70;;;;;;;6.85;100.00;100579.47;7372289;19;20403;-46
2023/11/15 10:03:31;;;;;;;7.37;4.00;;;;;;;6.68;100.00;100583.69;7375642;19;20463;-47
2023/11/15 10:06:03;;;;;;;5.43;3.00;;;;;;;6.48;100.00;100591.16;7349755;19;20438;-46
2023/11/15 10:08:34;;;;;;;12.10;5.70;;;;;;;6.60;100.00;100589.28;7391399;19;20424;-49
2023/11/15 10:11:09;;;;;;;6.00;2.80;;;;;;;6.47;100.00;100599.66;7369221;19;20399;-45
2023/11/15 10:13:39;;;;;;;11.90;5.50;;;;;;;6.43;100.00;100597.69;7395948;19;20417;-45
2023/11/15 10:16:30;;;;;;;7.17;3.40;;;;;;;6.53;100.00;100604.22;7371514;19;20446;-46
2023/11/15 10:19:00;;;;;;;6.60;2.77;;;;;;;6.50;100.00;100599.81;7393883;19;20808;-48
2023/11/15 10:21:33;;;;;;;5.83;2.27;;;;;;;6.35;100.00;100610.97;7369822;19;20419;-49
2023/11/15 10:24:14;;;;;;;6.60;2.73;;;;;;;6.29;100.00;100613.19;7396106;19;20475;-47
2023/11/15 10:26:46;;;;;;;8.13;3.60;;;;;;;6.29;100.00;100617.41;7369832;19;20423;-47
2023/11/15 10:29:19;;;;;;;9.57;3.03;;;;;;;6.34;100.00;100614.34;7394219;19;20411;-45
2023/11/15 10:31:52;;;;;;;5.80;2.50;;;;;;;6.19;100.00;100629.72;7371141;19;20439;-46
2023/11/15 10:34:24;;;;;;;7.07;2.40;;;;;;;6.04;100.00;100623.69;7394217;19;20403;-47
2023/11/15 10:37:07;;;;;;;7.30;3.87;;;;;;;6.21;100.00;100617.00;7370315;19;20439;-48
2023/11/15 10:39:40;;;;;;;4.73;2.73;;;;;;;6.24;100.00;100619.72;7395155;19;20766;-44
2023/11/15 10:42:15;;;;;;;8.67;3.47;;;;;;;6.35;100.00;100621.22;7370220;19;20431;-47
2023/11/15 10:44:47;;;;;;;14.23;3.87;;;;;;;6.45;100.00;100624.28;7393975;19;20418;-47
2023/11/15 10:47:21;;;;;;;4.90;2.30;;;;;;;6.54;100.00;100624.81;7369885;19;20454;-50
2023/11/15 10:49:55;;;;;;;10.80;5.10;;;;;;;6.68;100.00;100625.59;7395239;19;20418;-46
2023/11/15 10:52:25;;;;;;;5.30;2.73;;;;;;;6.75;100.00;100637.06;7370597;19;20876;-46
2023/11/15 10:54:58;;;;;;;4.17;2.00;;;;;;;6.72;100.00;100639.47;7393954;19;20874;-48
2023/11/15 10:57:31;;;;;;;6.80;2.73;;;;;;;6.64;100.00;100638.13;7369835;19;20856;-49
2023/11/15 11:00:05;;;;;;;8.93;3.40;;;;;;;6.75;100.00;100640.53;7393203;19;20396;-47
2023/11/15 11:02:36;;;;;;;4.10;2.50;;;;;;;6.79;100.00;100649.25;7372076;19;20439;-49
2023/11/15 11:05:07;;;;;;;3.70;1.90;;;;;;;6.66;100.00;100657.06;7393298;19;20420;-50
2023/11/15 11:07:42;;;;;;;4.90;2.03;;;;;;;6.55;100.00;100664.13;7370060;19;21005;-45
2023/11/15 11:10:18;;;;;;;6.60;1.73;;;;;;;6.52;100.00;100666.53;7370123;19;20474;-46
2023/11/15 11:12:50;;;;;;;3.83;1.70;;;;;;;6.46;100.00;100669.66;7393757;19;20423;-48
2023/11/15 11:15:24;;;;;;;4.00;1.30;;;;;;;6.56;100.00;100671.94;7373057;19;20455;-46
2023/11/15 11:18:03;;;;;;;3.00;1.43;;;;;;;6.52;100.00;100679.38;7392147;19;20407;-45
2023/11/15 11:20:36;;;;;;;2.60;1.33;;;;;;;6.57;100.00;100683.94;7370113;19;20947;-45
2023/11/15 11:23:10;;;;;;;2.67;1.10;;;;;;;6.78;100.00;100673.16;7392121;19;20439;-50
2023/11/15 11:25:41;;;;;;;3.13;1.30;;;;;;;6.82;100.00;100674.19;7362764;19;20406;-48
2023/11/15 11:28:14;;;;;;;7.30;2.57;;;;;;;6.88;100.00;100683.09;7391858;19;20416;-50
2023/11/15 11:30:44;;;;;;;4.63;2.50;;;;;;;6.92;100.00;100678.16;7370245;19;20418;-46
2023/11/15 11:33:18;;;;;;;3.50;1.60;;;;;;;6.81;100.00;100682.69;7391892;19;20391;-45
2023/11/15 11:35:50;;;;;;;3.30;1.33;;;;;;;6.94;100.00;100689.38;7368181;19;20411;-44
2023/11/15 11:38:41;;;;;;;3.20;1.37;;;;;;;6.90;100.00;100685.75;7390336;19;20435;-47